sensor_id;sensor_type;location;lat;lon;timestamp;pressure;altitude;pressure_sealevel;temperature;humidity
71791;BME280;59638;52.126;5.434;2023-03-22T00:01:44;101080.72;;;8.74;100.00
71791;BME280;59638;52.126;5.434;2023-03-22T00:04:11;101075.94;;;8.68;100.00
71791;BME280;59638;52.126;5.434;2023-03-22T00:06:38;101080.22;;;8.58;100.00
71791;BME280;59638;52.126;5.434;2023-03-22T00:09:04;101073.44;;;8.55;100.00
71791;BME280;59638;52.126;5.434;2023-03-22T00:11:31;101073.78;;;8.51;100.00
71791;BME280;59638;52.126;5.434;2023-03-22T00:13:57;101066.00;;;8.49;100.00
71791;BME280;59638;52.126;5.434;2023-03-22T00:16:24;101057.63;;;8.44;100.00
71791;BME280;59638;52.126;5.434;2023-03-22T00:18:50;101059.19;;;8.35;100.00
71791;BME280;59638;52.126;5.434;2023-03-22T00:21:17;101059.19;;;8.35;100.00
71791;BME280;59638;52.126;5.434;2023-03-22T00:23:44;101053.91;;;8.35;100.00
71791;BME280;59638;52.126;5.434;2023-03-22T00:26:11;101059.63;;;8.29;100.00
71791;BME280;59638;52.126;5.434;2023-03-22T00:28:38;101057.13;;;8.28;100.00
71791;BME280;59638;52.126;5.434;2023-03-22T00:31:06;101048.88;;;8.32;100.00
71791;BME280;59638;52.126;5.434;2023-03-22T00:33:33;101044.00;;;8.39;100.00
71791;BME280;59638;52.126;5.434;2023-03-22T00:36:03;101036.00;;;8.40;100.00
71791;BME280;59638;52.126;5.434;2023-03-22T00:38:30;101037.66;;;8.41;100.00
71791;BME280;59638;52.126;5.434;2023-03-22T00:41:17;101045.06;;;8.36;100.00
71791;BME280;59638;52.126;5.434;2023-03-22T00:43:45;101045.06;;;8.36;100.00
71791;BME280;59638;52.126;5.434;2023-03-22T00:46:13;101045.78;;;8.38;100.00
71791;BME280;59638;52.126;5.434;2023-03-22T00:48:40;101045.28;;;8.33;100.00
71791;BME280;59638;52.126;5.434;2023-03-22T00:51:07;101031.88;;;8.25;100.00
71791;BME280;59638;52.126;5.434;2023-03-22T00:53:34;101026.38;;;8.28;100.00
71791;BME280;59638;52.126;5.434;2023-03-22T00:56:08;101025.91;;;8.34;100.00
71791;BME280;59638;52.126;5.434;2023-03-22T00:58:34;101021.00;;;8.30;100.00
71791;BME280;59638;52.126;5.434;2023-03-22T01:01:01;101017.03;;;8.24;100.00
71791;BME280;59638;52.126;5.434;2023-03-22T01:03:27;101021.84;;;8.19;100.00
71791;BME280;59638;52.126;5.434;2023-03-22T01:05:54;101013.47;;;8.25;100.00
71791;BME280;59638;52.126;5.434;2023-03-22T01:08:21;101013.47;;;8.25;100.00
71791;BME280;59638;52.126;5.434;2023-03-22T01:10:49;100997.34;;;8.30;100.00
71791;BME280;59638;52.126;5.434;2023-03-22T01:13:16;100990.41;;;8.29;100.00
71791;BME280;59638;52.126;5.434;2023-03-22T01:15:43;100987.28;;;8.24;100.00
71791;BME280;59638;52.126;5.434;2023-03-22T01:18:10;100979.53;;;8.22;100.00
71791;BME280;59638;52.126;5.434;2023-03-22T01:20:36;100981.44;;;8.20;100.00
71791;BME280;59638;52.126;5.434;2023-03-22T01:23:03;100981.91;;;8.14;100.00
71791;BME280;59638;52.126;5.434;2023-03-22T01:25:29;100972.44;;;8.11;100.00
71791;BME280;59638;52.126;5.434;2023-03-22T01:27:56;100969.25;;;8.08;100.00
71791;BME280;59638;52.126;5.434;2023-03-22T01:30:22;100964.94;;;8.07;100.00
71791;BME280;59638;52.126;5.434;2023-03-22T01:32:49;100961.47;;;8.06;100.00
71791;BME280;59638;52.126;5.434;2023-03-22T01:35:15;100958.72;;;8.08;100.00
71791;BME280;59638;52.126;5.434;2023-03-22T01:37:41;100954.78;;;8.13;100.00
71791;BME280;59638;52.126;5.434;2023-03-22T01:40:14;100949.75;;;8.10;100.00
71791;BME280;59638;52.126;5.434;2023-03-22T01:42:41;100945.22;;;8.12;100.00
71791;BME280;59638;52.126;5.434;2023-03-22T01:47:44;100941.38;;;8.16;100.00
71791;BME280;59638;52.126;5.434;2023-03-22T01:50:13;100925.25;;;8.21;100.00
71791;BME280;59638;52.126;5.434;2023-03-22T01:52:40;100929.81;;;8.19;100.00
71791;BME280;59638;52.126;5.434;2023-03-22T01:55:07;100925.13;;;8.23;100.00
71791;BME280;59638;52.126;5.434;2023-03-22T01:57:34;100917.84;;;8.26;100.00
71791;BME280;59638;52.126;5.434;2023-03-22T02:00:07;100911.88;;;8.35;100.00
71791;BME280;59638;52.126;5.434;2023-03-22T02:02:35;100903.25;;;8.33;100.00
71791;BME280;59638;52.126;5.434;2023-03-22T02:05:02;100897.78;;;8.36;100.00
71791;BME280;59638;52.126;5.434;2023-03-22T02:07:29;100894.53;;;8.44;100.00
71791;BME280;59638;52.126;5.434;2023-03-22T02:09:57;100886.28;;;8.49;100.00
71791;BME280;59638;52.126;5.434;2023-03-22T02:16:07;100875.75;;;8.49;100.00
71791;BME280;59638;52.126;5.434;2023-03-22T02:21:55;100874.56;;;8.41;100.00
71791;BME280;59638;52.126;5.434;2023-03-22T02:25:17;100872.19;;;8.38;100.00
71791;BME280;59638;52.126;5.434;2023-03-22T02:28:19;100864.28;;;8.38;100.00
71791;BME280;59638;52.126;5.434;2023-03-22T02:30:58;100868.34;;;8.42;100.00
71791;BME280;59638;52.126;5.434;2023-03-22T02:33:56;100863.09;;;8.42;100.00
71791;BME280;59638;52.126;5.434;2023-03-22T02:41:54;100845.63;;;8.53;100.00
71791;BME280;59638;52.126;5.434;2023-03-22T02:44:32;100842.38;;;8.60;100.00
71791;BME280;59638;52.126;5.434;2023-03-22T02:50:02;100834.06;;;8.65;100.00
71791;BME280;59638;52.126;5.434;2023-03-22T02:55:20;100823.81;;;8.62;100.00
71791;BME280;59638;52.126;5.434;2023-03-22T02:57:54;100828.81;;;8.65;100.00
71791;BME280;59638;52.126;5.434;2023-03-22T03:00:23;100830.75;;;8.63;100.00
71791;BME280;59638;52.126;5.434;2023-03-22T03:02:58;100821.66;;;8.67;100.00
71791;BME280;59638;52.126;5.434;2023-03-22T03:05:29;100816.38;;;8.67;100.00
71791;BME280;59638;52.126;5.434;2023-03-22T03:07:59;100812.53;;;8.71;100.00
71791;BME280;59638;52.126;5.434;2023-03-22T03:10:28;100811.59;;;8.72;100.00
71791;BME280;59638;52.126;5.434;2023-03-22T03:12:54;100815.88;;;8.73;100.00
71791;BME280;59638;52.126;5.434;2023-03-22T03:15:21;100807.22;;;8.82;100.00
71791;BME280;59638;52.126;5.434;2023-03-22T03:20:51;100811.66;;;8.82;100.00
71791;BME280;59638;52.126;5.434;2023-03-22T03:23:33;100815.31;;;8.90;100.00
71791;BME280;59638;52.126;5.434;2023-03-22T03:28:39;100807.91;;;8.84;100.00
71791;BME280;59638;52.126;5.434;2023-03-22T03:33:47;100811.28;;;8.86;100.00
71791;BME280;59638;52.126;5.434;2023-03-22T03:36:18;100818.06;;;8.89;100.00
71791;BME280;59638;52.126;5.434;2023-03-22T03:38:49;100817.50;;;8.85;100.00
71791;BME280;59638;52.126;5.434;2023-03-22T03:41:23;100811.50;;;8.83;100.00
71791;BME280;59638;52.126;5.434;2023-03-22T03:43:53;100815.75;;;8.95;100.00
71791;BME280;59638;52.126;5.434;2023-03-22T03:46:21;100814.22;;;8.93;100.00
71791;BME280;59638;52.126;5.434;2023-03-22T03:48:49;100812.75;;;9.00;100.00
71791;BME280;59638;52.126;5.434;2023-03-22T03:51:16;100807.13;;;9.05;100.00
71791;BME280;59638;52.126;5.434;2023-03-22T03:53:43;100806.97;;;9.06;100.00
71791;BME280;59638;52.126;5.434;2023-03-22T03:56:09;100804.81;;;9.11;100.00
71791;BME280;59638;52.126;5.434;2023-03-22T03:58:36;100798.16;;;9.17;100.00
71791;BME280;59638;52.126;5.434;2023-03-22T04:01:02;100799.97;;;9.16;100.00
71791;BME280;59638;52.126;5.434;2023-03-22T04:03:30;100800.53;;;9.20;100.00
71791;BME280;59638;52.126;5.434;2023-03-22T04:05:56;100812.88;;;9.19;100.00
71791;BME280;59638;52.126;5.434;2023-03-22T04:08:25;100808.31;;;9.21;100.00
71791;BME280;59638;52.126;5.434;2023-03-22T04:10:51;100801.50;;;9.19;100.00
71791;BME280;59638;52.126;5.434;2023-03-22T04:13:18;100801.25;;;9.22;100.00
71791;BME280;59638;52.126;5.434;2023-03-22T04:15:51;100804.56;;;9.24;100.00
71791;BME280;59638;52.126;5.434;2023-03-22T04:18:17;100799.56;;;9.21;100.00
71791;BME280;59638;52.126;5.434;2023-03-22T04:20:45;100790.72;;;9.22;100.00
71791;BME280;59638;52.126;5.434;2023-03-22T04:23:11;100795.72;;;9.25;100.00
71791;BME280;59638;52.126;5.434;2023-03-22T04:25:38;100796.88;;;9.32;100.00
71791;BME280;59638;52.126;5.434;2023-03-22T04:28:04;100790.25;;;9.38;100.00
71791;BME280;59638;52.126;5.434;2023-03-22T04:30:30;100785.81;;;9.38;100.00
71791;BME280;59638;52.126;5.434;2023-03-22T04:33:04;100782.22;;;9.39;100.00
71791;BME280;59638;52.126;5.434;2023-03-22T04:35:34;100791.34;;;9.35;100.00
71791;BME280;59638;52.126;5.434;2023-03-22T04:38:00;100780.28;;;9.41;100.00
71791;BME280;59638;52.126;5.434;2023-03-22T04:40:27;100772.22;;;9.43;100.00
71791;BME280;59638;52.126;5.434;2023-03-22T04:42:57;100767.78;;;9.43;100.00
71791;BME280;59638;52.126;5.434;2023-03-22T04:45:24;100775.97;;;9.40;100.00
71791;BME280;59638;52.126;5.434;2023-03-22T04:47:54;100764.47;;;9.41;100.00
71791;BME280;59638;52.126;5.434;2023-03-22T04:50:21;100766.13;;;9.42;100.00
71791;BME280;59638;52.126;5.434;2023-03-22T04:52:47;100774.69;;;9.35;100.00
71791;BME280;59638;52.126;5.434;2023-03-22T04:55:15;100766.94;;;9.33;100.00
71791;BME280;59638;52.126;5.434;2023-03-22T04:57:41;100767.19;;;9.30;100.00
71791;BME280;59638;52.126;5.434;2023-03-22T05:00:08;100765.56;;;9.39;100.00
71791;BME280;59638;52.126;5.434;2023-03-22T05:02:35;100772.38;;;9.41;100.00
71791;BME280;59638;52.126;5.434;2023-03-22T05:05:06;100753.94;;;9.41;100.00
71791;BME280;59638;52.126;5.434;2023-03-22T05:07:33;100758.66;;;9.38;100.00
71791;BME280;59638;52.126;5.434;2023-03-22T05:09:59;100754.44;;;9.35;100.00
71791;BME280;59638;52.126;5.434;2023-03-22T05:12:25;100756.63;;;9.30;100.00
71791;BME280;59638;52.126;5.434;2023-03-22T05:14:52;100754.53;;;9.24;100.00
71791;BME280;59638;52.126;5.434;2023-03-22T05:17:19;100753.84;;;9.22;100.00
71791;BME280;59638;52.126;5.434;2023-03-22T05:19:45;100751.19;;;9.22;100.00
71791;BME280;59638;52.126;5.434;2023-03-22T05:22:12;100762.44;;;9.24;100.00
71791;BME280;59638;52.126;5.434;2023-03-22T05:24:39;100758.53;;;9.18;100.00
71791;BME280;59638;52.126;5.434;2023-03-22T05:27:05;100750.06;;;9.15;100.00
71791;BME280;59638;52.126;5.434;2023-03-22T05:29:32;100766.81;;;9.14;100.00
71791;BME280;59638;52.126;5.434;2023-03-22T05:32:02;100754.63;;;9.13;100.00
71791;BME280;59638;52.126;5.434;2023-03-22T05:34:29;100752.97;;;9.12;100.00
71791;BME280;59638;52.126;5.434;2023-03-22T05:37:01;100747.69;;;9.12;100.00
71791;BME280;59638;52.126;5.434;2023-03-22T05:39:27;100737.41;;;9.09;100.00
71791;BME280;59638;52.126;5.434;2023-03-22T05:41:54;100738.25;;;9.09;100.00
71791;BME280;59638;52.126;5.434;2023-03-22T05:44:20;100742.22;;;9.04;100.00
71791;BME280;59638;52.126;5.434;2023-03-22T05:46:47;100747.25;;;9.07;100.00
71791;BME280;59638;52.126;5.434;2023-03-22T05:49:13;100742.38;;;9.02;100.00
71791;BME280;59638;52.126;5.434;2023-03-22T05:51:39;100747.38;;;9.05;100.00
71791;BME280;59638;52.126;5.434;2023-03-22T05:54:08;100737.94;;;9.03;100.00
71791;BME280;59638;52.126;5.434;2023-03-22T05:56:34;100731.53;;;8.95;100.00
71791;BME280;59638;52.126;5.434;2023-03-22T05:59:02;100731.28;;;8.98;100.00
71791;BME280;59638;52.126;5.434;2023-03-22T06:01:29;100724.22;;;8.99;100.00
71791;BME280;59638;52.126;5.434;2023-03-22T06:03:56;100734.09;;;9.07;100.00
71791;BME280;59638;52.126;5.434;2023-03-22T06:06:22;100725.22;;;9.08;100.00
71791;BME280;59638;52.126;5.434;2023-03-22T06:08:49;100722.59;;;9.08;100.00
71791;BME280;59638;52.126;5.434;2023-03-22T06:11:15;100728.13;;;9.05;100.00
71791;BME280;59638;52.126;5.434;2023-03-22T06:13:43;100723.56;;;9.07;100.00
71791;BME280;59638;52.126;5.434;2023-03-22T06:16:10;100732.31;;;9.17;100.00
71791;BME280;59638;52.126;5.434;2023-03-22T06:18:36;100725.13;;;9.19;100.00
71791;BME280;59638;52.126;5.434;2023-03-22T06:21:03;100728.19;;;9.24;100.00
71791;BME280;59638;52.126;5.434;2023-03-22T06:23:29;100730.13;;;9.22;100.00
71791;BME280;59638;52.126;5.434;2023-03-22T06:25:56;100735.78;;;9.17;100.00
71791;BME280;59638;52.126;5.434;2023-03-22T06:28:22;100727.78;;;9.19;100.00
71791;BME280;59638;52.126;5.434;2023-03-22T06:30:49;100727.50;;;9.22;100.00
71791;BME280;59638;52.126;5.434;2023-03-22T06:33:15;100735.56;;;9.30;100.00
71791;BME280;59638;52.126;5.434;2023-03-22T06:35:42;100730.13;;;9.52;100.00
71791;BME280;59638;52.126;5.434;2023-03-22T06:38:08;100730.34;;;9.80;100.00
71791;BME280;59638;52.126;5.434;2023-03-22T06:40:35;100729.13;;;10.03;100.00
71791;BME280;59638;52.126;5.434;2023-03-22T06:43:02;100726.53;;;10.23;100.00
71791;BME280;59638;52.126;5.434;2023-03-22T06:45:32;100727.25;;;10.25;100.00
71791;BME280;59638;52.126;5.434;2023-03-22T06:47:59;100731.09;;;10.21;100.00
71791;BME280;59638;52.126;5.434;2023-03-22T06:50:27;100729.16;;;10.23;100.00
71791;BME280;59638;52.126;5.434;2023-03-22T06:52:53;100739.59;;;10.24;100.00
71791;BME280;59638;52.126;5.434;2023-03-22T06:55:20;100732.75;;;10.22;100.00
71791;BME280;59638;52.126;5.434;2023-03-22T06:57:46;100736.13;;;10.24;100.00
71791;BME280;59638;52.126;5.434;2023-03-22T07:00:13;100730.28;;;10.30;100.00
71791;BME280;59638;52.126;5.434;2023-03-22T07:02:40;100745.28;;;10.39;100.00
71791;BME280;59638;52.126;5.434;2023-03-22T07:05:07;100745.28;;;10.39;100.00
71791;BME280;59638;52.126;5.434;2023-03-22T07:07:33;100730.00;;;10.33;100.00
71791;BME280;59638;52.126;5.434;2023-03-22T07:10:00;100741.53;;;10.32;100.00
71791;BME280;59638;52.126;5.434;2023-03-22T07:12:26;100742.09;;;10.26;100.00
71791;BME280;59638;52.126;5.434;2023-03-22T07:14:53;100732.75;;;10.22;100.00
71791;BME280;59638;52.126;5.434;2023-03-22T07:17:19;100735.69;;;10.19;100.00
71791;BME280;59638;52.126;5.434;2023-03-22T07:19:45;100741.94;;;10.18;100.00
71791;BME280;59638;52.126;5.434;2023-03-22T07:22:12;100738.56;;;10.16;100.00
71791;BME280;59638;52.126;5.434;2023-03-22T07:24:38;100743.84;;;10.16;100.00
71791;BME280;59638;52.126;5.434;2023-03-22T07:27:21;100740.53;;;10.14;100.00
71791;BME280;59638;52.126;5.434;2023-03-22T07:29:47;100739.97;;;10.20;100.00
71791;BME280;59638;52.126;5.434;2023-03-22T07:32:14;100726.94;;;10.28;100.00
71791;BME280;59638;52.126;5.434;2023-03-22T07:34:41;100738.22;;;10.40;100.00
71791;BME280;59638;52.126;5.434;2023-03-22T07:37:07;100723.50;;;10.56;100.00
71791;BME280;59638;52.126;5.434;2023-03-22T07:39:34;100726.53;;;10.61;100.00
71791;BME280;59638;52.126;5.434;2023-03-22T07:42:01;100727.22;;;10.64;98.26
71791;BME280;59638;52.126;5.434;2023-03-22T07:44:28;100730.56;;;10.66;99.96
71791;BME280;59638;52.126;5.434;2023-03-22T07:46:54;100713.84;;;10.75;98.70
71791;BME280;59638;52.126;5.434;2023-03-22T07:49:21;100720.53;;;10.79;99.58
71791;BME280;59638;52.126;5.434;2023-03-22T07:51:47;100727.88;;;10.85;98.40
71791;BME280;59638;52.126;5.434;2023-03-22T07:54:14;100731.25;;;10.77;97.51
71791;BME280;59638;52.126;5.434;2023-03-22T07:56:58;100729.84;;;10.73;98.17
71791;BME280;59638;52.126;5.434;2023-03-22T07:59:24;100729.44;;;10.78;98.23
71791;BME280;59638;52.126;5.434;2023-03-22T08:01:51;100728.16;;;10.82;97.80
71791;BME280;59638;52.126;5.434;2023-03-22T08:04:17;100728.69;;;10.95;96.87
71791;BME280;59638;52.126;5.434;2023-03-22T08:06:45;100731.56;;;11.11;95.33
71791;BME280;59638;52.126;5.434;2023-03-22T08:09:11;100720.34;;;11.37;96.70
71791;BME280;59638;52.126;5.434;2023-03-22T08:11:38;100719.56;;;11.54;94.62
71791;BME280;59638;52.126;5.434;2023-03-22T08:14:04;100732.41;;;11.77;94.69
71791;BME280;59638;52.126;5.434;2023-03-22T08:16:31;100714.00;;;11.85;92.80
71791;BME280;59638;52.126;5.434;2023-03-22T08:18:58;100711.84;;;11.70;93.57
71791;BME280;59638;52.126;5.434;2023-03-22T08:21:24;100725.00;;;11.53;94.07
71791;BME280;59638;52.126;5.434;2023-03-22T08:23:51;100716.09;;;11.54;96.19
71791;BME280;59638;52.126;5.434;2023-03-22T08:26:17;100723.38;;;11.42;95.29
71791;BME280;59638;52.126;5.434;2023-03-22T08:28:44;100718.44;;;11.29;92.72
71791;BME280;59638;52.126;5.434;2023-03-22T08:31:12;100717.59;;;11.29;92.94
71791;BME280;59638;52.126;5.434;2023-03-22T08:33:41;100714.25;;;11.27;94.75
71791;BME280;59638;52.126;5.434;2023-03-22T08:36:11;100721.47;;;11.34;93.75
71791;BME280;59638;52.126;5.434;2023-03-22T08:38:37;100713.69;;;11.33;92.75
71791;BME280;59638;52.126;5.434;2023-03-22T08:41:04;100718.00;;;11.34;93.97
71791;BME280;59638;52.126;5.434;2023-03-22T08:43:30;100712.28;;;11.38;94.97
71791;BME280;59638;52.126;5.434;2023-03-22T08:45:57;100716.16;;;11.44;93.08
71791;BME280;59638;52.126;5.434;2023-03-22T08:48:23;100708.63;;;11.49;92.08
71791;BME280;59638;52.126;5.434;2023-03-22T08:50:50;100715.94;;;11.55;92.85
71791;BME280;59638;52.126;5.434;2023-03-22T08:53:16;100708.22;;;11.71;91.69
71791;BME280;59638;52.126;5.434;2023-03-22T08:55:43;100704.56;;;12.00;91.16
71791;BME280;59638;52.126;5.434;2023-03-22T08:58:14;100700.41;;;11.97;90.62
71791;BME280;59638;52.126;5.434;2023-03-22T09:00:46;100709.53;;;11.85;89.90
71791;BME280;59638;52.126;5.434;2023-03-22T09:03:15;100711.88;;;11.61;90.54
71791;BME280;59638;52.126;5.434;2023-03-22T09:05:42;100722.69;;;11.40;95.30
71791;BME280;59638;52.126;5.434;2023-03-22T09:08:08;100708.72;;;11.30;95.17
71791;BME280;59638;52.126;5.434;2023-03-22T09:10:45;100705.66;;;11.25;92.19
71791;BME280;59638;52.126;5.434;2023-03-22T09:13:13;100715.41;;;11.24;92.80
71791;BME280;59638;52.126;5.434;2023-03-22T09:15:43;100709.56;;;11.21;90.48
71791;BME280;59638;52.126;5.434;2023-03-22T09:18:10;100721.25;;;11.18;91.01
71791;BME280;59638;52.126;5.434;2023-03-22T09:20:37;100718.47;;;11.20;91.28
71791;BME280;59638;52.126;5.434;2023-03-22T09:23:04;100718.72;;;11.26;92.11
71791;BME280;59638;52.126;5.434;2023-03-22T09:25:31;100718.13;;;11.32;89.91
71791;BME280;59638;52.126;5.434;2023-03-22T09:27:57;100713.28;;;11.28;92.79
71791;BME280;59638;52.126;5.434;2023-03-22T09:30:23;100719.34;;;11.10;90.56
71791;BME280;59638;52.126;5.434;2023-03-22T09:32:50;100720.75;;;11.05;92.11
71791;BME280;59638;52.126;5.434;2023-03-22T09:35:16;100728.25;;;11.09;93.80
71791;BME280;59638;52.126;5.434;2023-03-22T09:37:42;100713.50;;;11.07;93.23
71791;BME280;59638;52.126;5.434;2023-03-22T09:40:11;100719.66;;;10.88;94.05
71791;BME280;59638;52.126;5.434;2023-03-22T09:42:43;100725.25;;;10.75;95.24
71791;BME280;59638;52.126;5.434;2023-03-22T09:45:18;100730.69;;;10.74;96.37
71791;BME280;59638;52.126;5.434;2023-03-22T09:47:48;100717.22;;;10.57;96.05
71791;BME280;59638;52.126;5.434;2023-03-22T09:50:22;100718.91;;;10.39;98.10
71791;BME280;59638;52.126;5.434;2023-03-22T09:52:49;100726.41;;;10.34;98.06
71791;BME280;59638;52.126;5.434;2023-03-22T09:55:20;100725.00;;;10.30;98.92
71791;BME280;59638;52.126;5.434;2023-03-22T09:58:01;100701.09;;;10.22;100.00
71791;BME280;59638;52.126;5.434;2023-03-22T10:06:12;100721.63;;;10.08;100.00
71791;BME280;59638;52.126;5.434;2023-03-22T10:08:58;100721.38;;;10.12;100.00
71791;BME280;59638;52.126;5.434;2023-03-22T10:11:34;100711.63;;;10.02;100.00
71791;BME280;59638;52.126;5.434;2023-03-22T10:16:46;100711.63;;;10.02;100.00
71791;BME280;59638;52.126;5.434;2023-03-22T10:19:35;100719.53;;;10.02;100.00
71791;BME280;59638;52.126;5.434;2023-03-22T10:22:05;100720.50;;;10.01;100.00
71791;BME280;59638;52.126;5.434;2023-03-22T10:24:35;100718.56;;;10.03;100.00
71791;BME280;59638;52.126;5.434;2023-03-22T10:27:12;100712.19;;;10.06;100.00
71791;BME280;59638;52.126;5.434;2023-03-22T10:30:02;100723.59;;;10.06;100.00
71791;BME280;59638;52.126;5.434;2023-03-22T10:32:35;100727.19;;;10.05;100.00
71791;BME280;59638;52.126;5.434;2023-03-22T10:35:21;100715.53;;;10.08;100.00
71791;BME280;59638;52.126;5.434;2023-03-22T10:37:50;100717.19;;;10.09;100.00
71791;BME280;59638;52.126;5.434;2023-03-22T10:40:22;100720.13;;;10.06;100.00
71791;BME280;59638;52.126;5.434;2023-03-22T10:42:53;100719.53;;;10.02;100.00
71791;BME280;59638;52.126;5.434;2023-03-22T10:45:23;100725.94;;;10.00;100.00
71791;BME280;59638;52.126;5.434;2023-03-22T10:47:57;100721.88;;;9.96;100.00
71791;BME280;59638;52.126;5.434;2023-03-22T10:50:36;100721.34;;;9.92;100.00
71791;BME280;59638;52.126;5.434;2023-03-22T10:53:32;100720.78;;;9.89;100.00
71791;BME280;59638;52.126;5.434;2023-03-22T10:56:02;100726.19;;;9.87;100.00
71791;BME280;59638;52.126;5.434;2023-03-22T10:58:31;100716.91;;;9.93;100.00
71791;BME280;59638;52.126;5.434;2023-03-22T11:01:03;100724.81;;;10.02;100.00
71791;BME280;59638;52.126;5.434;2023-03-22T11:06:05;100713.03;;;10.06;100.00
71791;BME280;59638;52.126;5.434;2023-03-22T11:11:21;100699.16;;;10.14;100.00
71791;BME280;59638;52.126;5.434;2023-03-22T11:13:50;100701.09;;;10.22;100.00
71791;BME280;59638;52.126;5.434;2023-03-22T11:16:18;100695.16;;;10.29;100.00
71791;BME280;59638;52.126;5.434;2023-03-22T11:18:45;100694.59;;;10.35;100.00
71791;BME280;59638;52.126;5.434;2023-03-22T11:21:14;100701.13;;;10.41;100.00
71791;BME280;59638;52.126;5.434;2023-03-22T11:23:54;100698.63;;;10.30;100.00
71791;BME280;59638;52.126;5.434;2023-03-22T11:26:27;100709.16;;;10.30;100.00
71791;BME280;59638;52.126;5.434;2023-03-22T11:29:02;100696.13;;;10.38;100.00
71791;BME280;59638;52.126;5.434;2023-03-22T11:31:52;100696.94;;;10.48;100.00
71791;BME280;59638;52.126;5.434;2023-03-22T11:34:24;100693.31;;;10.49;100.00
71791;BME280;59638;52.126;5.434;2023-03-22T11:36:51;100693.91;;;10.53;100.00
71791;BME280;59638;52.126;5.434;2023-03-22T11:39:24;100692.22;;;10.52;100.00
71791;BME280;59638;52.126;5.434;2023-03-22T11:41:53;100678.28;;;10.69;100.00
71791;BME280;59638;52.126;5.434;2023-03-22T11:44:24;100703.03;;;10.78;100.00
71791;BME280;59638;52.126;5.434;2023-03-22T11:46:55;100696.75;;;10.79;100.00
71791;BME280;59638;52.126;5.434;2023-03-22T11:49:44;100698.00;;;10.75;100.00
71791;BME280;59638;52.126;5.434;2023-03-22T11:52:16;100695.25;;;10.76;100.00
71791;BME280;59638;52.126;5.434;2023-03-22T11:54:44;100711.94;;;10.77;100.00
71791;BME280;59638;52.126;5.434;2023-03-22T11:57:27;100709.28;;;10.77;100.00
71791;BME280;59638;52.126;5.434;2023-03-22T12:00:11;100711.94;;;10.77;100.00
71791;BME280;59638;52.126;5.434;2023-03-22T12:02:48;100719.69;;;10.69;100.00
71791;BME280;59638;52.126;5.434;2023-03-22T12:05:21;100726.09;;;10.66;100.00
71791;BME280;59638;52.126;5.434;2023-03-22T12:07:57;100726.94;;;10.67;100.00
71791;BME280;59638;52.126;5.434;2023-03-22T12:10:30;100719.16;;;10.65;100.00
71791;BME280;59638;52.126;5.434;2023-03-22T12:13:18;100716.38;;;10.67;100.00
71791;BME280;59638;52.126;5.434;2023-03-22T12:15:53;100715.25;;;10.69;100.00
71791;BME280;59638;52.126;5.434;2023-03-22T12:18:27;100701.78;;;10.72;100.00
71791;BME280;59638;52.126;5.434;2023-03-22T12:20:59;100710.53;;;10.73;100.00
71791;BME280;59638;52.126;5.434;2023-03-22T12:23:31;100709.41;;;10.75;100.00
71791;BME280;59638;52.126;5.434;2023-03-22T12:28:55;100716.91;;;10.80;100.00
71791;BME280;59638;52.126;5.434;2023-03-22T12:33:55;100707.03;;;10.82;100.00
71791;BME280;59638;52.126;5.434;2023-03-22T12:36:33;100712.31;;;10.82;100.00
71791;BME280;59638;52.126;5.434;2023-03-22T12:39:01;100707.75;;;10.84;100.00
71791;BME280;59638;52.126;5.434;2023-03-22T12:41:35;100704.13;;;10.85;100.00
71791;BME280;59638;52.126;5.434;2023-03-22T12:44:09;100703.28;;;10.84;100.00
71791;BME280;59638;52.126;5.434;2023-03-22T12:47:02;100707.44;;;10.87;100.00
71791;BME280;59638;52.126;5.434;2023-03-22T12:49:40;100703.81;;;10.88;100.00
71791;BME280;59638;52.126;5.434;2023-03-22T12:52:45;100698.53;;;10.88;100.00
71791;BME280;59638;52.126;5.434;2023-03-22T12:55:25;100694.81;;;10.91;100.00
71791;BME280;59638;52.126;5.434;2023-03-22T12:57:54;100701.59;;;10.93;100.00
71791;BME280;59638;52.126;5.434;2023-03-22T13:05:45;100688.22;;;11.04;100.00
71791;BME280;59638;52.126;5.434;2023-03-22T13:08:12;100686.25;;;11.06;100.00
71791;BME280;59638;52.126;5.434;2023-03-22T13:10:48;100700.16;;;11.08;100.00
71791;BME280;59638;52.126;5.434;2023-03-22T13:23:33;100703.66;;;10.99;100.00
71791;BME280;59638;52.126;5.434;2023-03-22T13:26:02;100704.63;;;10.98;100.00
71791;BME280;59638;52.126;5.434;2023-03-22T13:28:29;100706.31;;;10.99;100.00
71791;BME280;59638;52.126;5.434;2023-03-22T13:31:02;100701.84;;;11.00;100.00
71791;BME280;59638;52.126;5.434;2023-03-22T13:33:32;100700.72;;;11.02;100.00
71791;BME280;59638;52.126;5.434;2023-03-22T13:36:06;100697.13;;;11.03;100.00
71791;BME280;59638;52.126;5.434;2023-03-22T13:38:53;100685.28;;;11.07;100.00
71791;BME280;59638;52.126;5.434;2023-03-22T13:41:26;100697.38;;;11.10;100.00
71791;BME280;59638;52.126;5.434;2023-03-22T13:43:55;100704.31;;;11.11;100.00
71791;BME280;59638;52.126;5.434;2023-03-22T13:54:07;100703.56;;;10.91;100.00
71791;BME280;59638;52.126;5.434;2023-03-22T13:59:13;100696.63;;;10.80;100.00
71791;BME280;59638;52.126;5.434;2023-03-22T14:01:50;100675.47;;;10.90;100.00
71791;BME280;59638;52.126;5.434;2023-03-22T14:07:40;100694.91;;;10.89;100.00
71791;BME280;59638;52.126;5.434;2023-03-22T14:10:16;100686.06;;;10.80;100.00
71791;BME280;59638;52.126;5.434;2023-03-22T14:12:51;100686.88;;;10.81;100.00
71791;BME280;59638;52.126;5.434;2023-03-22T14:15:23;100670.19;;;10.90;100.00
71791;BME280;59638;52.126;5.434;2023-03-22T14:17:54;100672.66;;;11.01;100.00
71791;BME280;59638;52.126;5.434;2023-03-22T14:20:25;100677.34;;;11.07;100.00